sensor_id;sensor_type;location;lat;lon;timestamp;temperature;humidity
69208;SHT31;56321;47.662;8.878;2022-10-16T00:01:22;14.86;80.34
69208;SHT31;56321;47.662;8.878;2022-10-16T00:03:48;14.86;80.29
69208;SHT31;56321;47.662;8.878;2022-10-16T00:06:16;14.85;80.35
69208;SHT31;56321;47.662;8.878;2022-10-16T00:08:42;14.88;80.34
69208;SHT31;56321;47.662;8.878;2022-10-16T00:11:28;14.85;80.36
69208;SHT31;56321;47.662;8.878;2022-10-16T00:13:58;14.85;80.36
69208;SHT31;56321;47.662;8.878;2022-10-16T00:16:25;14.86;80.41
69208;SHT31;56321;47.662;8.878;2022-10-16T00:18:50;14.88;80.42
69208;SHT31;56321;47.662;8.878;2022-10-16T00:21:19;14.86;80.39
69208;SHT31;56321;47.662;8.878;2022-10-16T00:23:44;14.86;80.46
69208;SHT31;56321;47.662;8.878;2022-10-16T00:26:15;14.88;80.48
69208;SHT31;56321;47.662;8.878;2022-10-16T00:28:40;14.91;80.52
69208;SHT31;56321;47.662;8.878;2022-10-16T00:31:08;14.89;80.46
69208;SHT31;56321;47.662;8.878;2022-10-16T00:33:34;14.91;80.55
69208;SHT31;56321;47.662;8.878;2022-10-16T00:36:01;14.88;80.56
69208;SHT31;56321;47.662;8.878;2022-10-16T00:38:26;14.92;80.54
69208;SHT31;56321;47.662;8.878;2022-10-16T00:40:52;14.91;80.50
69208;SHT31;56321;47.662;8.878;2022-10-16T00:43:37;14.89;80.65
69208;SHT31;56321;47.662;8.878;2022-10-16T00:46:09;14.89;80.61
69208;SHT31;56321;47.662;8.878;2022-10-16T00:48:36;14.93;80.62
69208;SHT31;56321;47.662;8.878;2022-10-16T00:51:01;14.89;80.57
69208;SHT31;56321;47.662;8.878;2022-10-16T00:53:27;14.91;80.63
69208;SHT31;56321;47.662;8.878;2022-10-16T00:55:53;14.91;80.71
69208;SHT31;56321;47.662;8.878;2022-10-16T00:58:19;14.89;80.69
69208;SHT31;56321;47.662;8.878;2022-10-16T01:00:45;14.92;80.69
69208;SHT31;56321;47.662;8.878;2022-10-16T01:03:26;14.88;80.78
69208;SHT31;56321;47.662;8.878;2022-10-16T01:06:23;14.88;80.92
69208;SHT31;56321;47.662;8.878;2022-10-16T01:14:00;14.89;80.85
69208;SHT31;56321;47.662;8.878;2022-10-16T01:16:34;14.86;80.91
69208;SHT31;56321;47.662;8.878;2022-10-16T01:21:39;14.91;80.91
69208;SHT31;56321;47.662;8.878;2022-10-16T01:24:16;14.88;80.99
69208;SHT31;56321;47.662;8.878;2022-10-16T01:27:28;14.92;80.97
69208;SHT31;56321;47.662;8.878;2022-10-16T01:29:41;14.89;81.01
69208;SHT31;56321;47.662;8.878;2022-10-16T01:32:16;14.89;80.98
69208;SHT31;56321;47.662;8.878;2022-10-16T01:34:58;14.89;80.98
69208;SHT31;56321;47.662;8.878;2022-10-16T01:37:36;14.89;81.00
69208;SHT31;56321;47.662;8.878;2022-10-16T01:40:06;14.89;80.96
69208;SHT31;56321;47.662;8.878;2022-10-16T01:42:39;14.91;80.98
69208;SHT31;56321;47.662;8.878;2022-10-16T01:45:07;14.92;81.02
69208;SHT31;56321;47.662;8.878;2022-10-16T01:47:35;14.89;80.99
69208;SHT31;56321;47.662;8.878;2022-10-16T01:50:02;14.91;81.07
69208;SHT31;56321;47.662;8.878;2022-10-16T01:52:32;14.89;81.05
69208;SHT31;56321;47.662;8.878;2022-10-16T01:55:00;14.89;81.02
69208;SHT31;56321;47.662;8.878;2022-10-16T01:57:28;14.88;81.06
69208;SHT31;56321;47.662;8.878;2022-10-16T01:59:58;14.91;81.19
69208;SHT31;56321;47.662;8.878;2022-10-16T02:02:26;14.91;81.19
69208;SHT31;56321;47.662;8.878;2022-10-16T02:04:58;14.91;81.20
69208;SHT31;56321;47.662;8.878;2022-10-16T02:07:26;14.92;81.23
69208;SHT31;56321;47.662;8.878;2022-10-16T02:09:52;14.91;81.20
69208;SHT31;56321;47.662;8.878;2022-10-16T02:12:32;14.91;81.30
69208;SHT31;56321;47.662;8.878;2022-10-16T02:14:59;14.91;81.21
69208;SHT31;56321;47.662;8.878;2022-10-16T02:17:25;14.88;81.25
69208;SHT31;56321;47.662;8.878;2022-10-16T02:19:54;14.88;81.29
69208;SHT31;56321;47.662;8.878;2022-10-16T02:22:30;14.88;81.35
69208;SHT31;56321;47.662;8.878;2022-10-16T02:25:08;14.86;81.37
69208;SHT31;56321;47.662;8.878;2022-10-16T02:27:40;14.86;81.35
69208;SHT31;56321;47.662;8.878;2022-10-16T02:30:11;14.88;81.26
69208;SHT31;56321;47.662;8.878;2022-10-16T02:32:40;14.85;81.26
69208;SHT31;56321;47.662;8.878;2022-10-16T02:35:07;14.85;81.29
69208;SHT31;56321;47.662;8.878;2022-10-16T02:37:34;14.85;81.35
69208;SHT31;56321;47.662;8.878;2022-10-16T02:40:00;14.84;81.36
69208;SHT31;56321;47.662;8.878;2022-10-16T02:42:33;14.82;81.31
69208;SHT31;56321;47.662;8.878;2022-10-16T02:44:58;14.81;81.30
69208;SHT31;56321;47.662;8.878;2022-10-16T02:47:24;14.81;81.33
69208;SHT31;56321;47.662;8.878;2022-10-16T02:49:50;14.81;81.31
69208;SHT31;56321;47.662;8.878;2022-10-16T02:52:15;14.76;81.33
69208;SHT31;56321;47.662;8.878;2022-10-16T02:54:40;14.78;81.36
69208;SHT31;56321;47.662;8.878;2022-10-16T02:57:06;14.75;81.37
69208;SHT31;56321;47.662;8.878;2022-10-16T02:59:31;14.74;81.43
69208;SHT31;56321;47.662;8.878;2022-10-16T03:01:56;14.71;81.49
69208;SHT31;56321;47.662;8.878;2022-10-16T03:04:22;14.71;81.52
69208;SHT31;56321;47.662;8.878;2022-10-16T03:06:47;14.72;81.57
69208;SHT31;56321;47.662;8.878;2022-10-16T03:09:12;14.71;81.64
69208;SHT31;56321;47.662;8.878;2022-10-16T03:11:38;14.72;81.58
69208;SHT31;56321;47.662;8.878;2022-10-16T03:14:03;14.72;81.58
69208;SHT31;56321;47.662;8.878;2022-10-16T03:16:28;14.71;81.60
69208;SHT31;56321;47.662;8.878;2022-10-16T03:18:54;14.72;81.50
69208;SHT31;56321;47.662;8.878;2022-10-16T03:21:19;14.71;81.49
69208;SHT31;56321;47.662;8.878;2022-10-16T03:23:44;14.69;81.45
69208;SHT31;56321;47.662;8.878;2022-10-16T03:26:10;14.68;81.43
69208;SHT31;56321;47.662;8.878;2022-10-16T03:28:35;14.65;81.40
69208;SHT31;56321;47.662;8.878;2022-10-16T03:31:00;14.64;81.38
69208;SHT31;56321;47.662;8.878;2022-10-16T03:33:26;14.63;81.35
69208;SHT31;56321;47.662;8.878;2022-10-16T03:35:52;14.63;81.29
69208;SHT31;56321;47.662;8.878;2022-10-16T03:38:18;14.58;81.22
69208;SHT31;56321;47.662;8.878;2022-10-16T03:40:44;14.57;81.15
69208;SHT31;56321;47.662;8.878;2022-10-16T03:43:09;14.52;81.11
69208;SHT31;56321;47.662;8.878;2022-10-16T03:45:34;14.51;81.14
69208;SHT31;56321;47.662;8.878;2022-10-16T03:48:00;14.47;81.01
69208;SHT31;56321;47.662;8.878;2022-10-16T03:50:25;14.45;80.98
69208;SHT31;56321;47.662;8.878;2022-10-16T03:52:50;14.41;80.96
69208;SHT31;56321;47.662;8.878;2022-10-16T03:55:16;14.38;80.89
69208;SHT31;56321;47.662;8.878;2022-10-16T03:57:41;14.37;80.89
69208;SHT31;56321;47.662;8.878;2022-10-16T04:00:07;14.33;80.97
69208;SHT31;56321;47.662;8.878;2022-10-16T04:02:32;14.30;80.97
69208;SHT31;56321;47.662;8.878;2022-10-16T04:04:58;14.30;81.05
69208;SHT31;56321;47.662;8.878;2022-10-16T04:07:23;14.28;81.21
69208;SHT31;56321;47.662;8.878;2022-10-16T04:09:48;14.30;81.30
69208;SHT31;56321;47.662;8.878;2022-10-16T04:12:14;14.30;81.38
69208;SHT31;56321;47.662;8.878;2022-10-16T04:14:39;14.30;81.44
69208;SHT31;56321;47.662;8.878;2022-10-16T04:17:04;14.33;81.46
69208;SHT31;56321;47.662;8.878;2022-10-16T04:19:30;14.34;81.50
69208;SHT31;56321;47.662;8.878;2022-10-16T04:21:55;14.36;81.50
69208;SHT31;56321;47.662;8.878;2022-10-16T04:24:20;14.38;81.40
69208;SHT31;56321;47.662;8.878;2022-10-16T04:26:46;14.40;81.46
69208;SHT31;56321;47.662;8.878;2022-10-16T04:29:11;14.40;81.46
69208;SHT31;56321;47.662;8.878;2022-10-16T04:31:36;14.41;81.46
69208;SHT31;56321;47.662;8.878;2022-10-16T04:34:02;14.42;81.45
69208;SHT31;56321;47.662;8.878;2022-10-16T04:36:27;14.41;81.50
69208;SHT31;56321;47.662;8.878;2022-10-16T04:38:52;14.41;81.47
69208;SHT31;56321;47.662;8.878;2022-10-16T04:41:18;14.41;81.45
69208;SHT31;56321;47.662;8.878;2022-10-16T04:43:43;14.38;81.53
69208;SHT31;56321;47.662;8.878;2022-10-16T04:46:08;14.42;81.52
69208;SHT31;56321;47.662;8.878;2022-10-16T04:48:35;14.41;81.51
69208;SHT31;56321;47.662;8.878;2022-10-16T04:51:00;14.41;81.47
69208;SHT31;56321;47.662;8.878;2022-10-16T04:53:26;14.44;81.54
69208;SHT31;56321;47.662;8.878;2022-10-16T04:55:51;14.41;81.49
69208;SHT31;56321;47.662;8.878;2022-10-16T04:58:16;14.47;81.46
69208;SHT31;56321;47.662;8.878;2022-10-16T05:00:42;14.42;81.47
69208;SHT31;56321;47.662;8.878;2022-10-16T05:03:07;14.44;81.52
69208;SHT31;56321;47.662;8.878;2022-10-16T05:05:34;14.44;81.52
69208;SHT31;56321;47.662;8.878;2022-10-16T05:08:00;14.44;81.49
69208;SHT31;56321;47.662;8.878;2022-10-16T05:10:26;14.44;81.48
69208;SHT31;56321;47.662;8.878;2022-10-16T05:12:51;14.44;81.44
69208;SHT31;56321;47.662;8.878;2022-10-16T05:15:17;14.42;81.38
69208;SHT31;56321;47.662;8.878;2022-10-16T05:17:43;14.42;81.34
69208;SHT31;56321;47.662;8.878;2022-10-16T05:20:09;14.42;81.26
69208;SHT31;56321;47.662;8.878;2022-10-16T05:22:34;14.40;81.28
69208;SHT31;56321;47.662;8.878;2022-10-16T05:25:00;14.38;81.23
69208;SHT31;56321;47.662;8.878;2022-10-16T05:27:25;14.36;81.20
69208;SHT31;56321;47.662;8.878;2022-10-16T05:29:51;14.31;81.22
69208;SHT31;56321;47.662;8.878;2022-10-16T05:32:18;14.31;81.30
69208;SHT31;56321;47.662;8.878;2022-10-16T05:34:44;14.31;81.42
69208;SHT31;56321;47.662;8.878;2022-10-16T05:37:10;14.28;81.52
69208;SHT31;56321;47.662;8.878;2022-10-16T05:39:36;14.27;81.56
69208;SHT31;56321;47.662;8.878;2022-10-16T05:42:03;14.28;81.62
69208;SHT31;56321;47.662;8.878;2022-10-16T05:44:28;14.30;81.56
69208;SHT31;56321;47.662;8.878;2022-10-16T05:46:54;14.31;81.64
69208;SHT31;56321;47.662;8.878;2022-10-16T05:49:20;14.33;81.63
69208;SHT31;56321;47.662;8.878;2022-10-16T05:51:45;14.31;81.62
69208;SHT31;56321;47.662;8.878;2022-10-16T05:54:10;14.33;81.64
69208;SHT31;56321;47.662;8.878;2022-10-16T05:56:36;14.34;81.66
69208;SHT31;56321;47.662;8.878;2022-10-16T05:59:03;14.33;81.71
69208;SHT31;56321;47.662;8.878;2022-10-16T06:01:29;14.34;81.75
69208;SHT31;56321;47.662;8.878;2022-10-16T06:03:54;14.37;81.75
69208;SHT31;56321;47.662;8.878;2022-10-16T06:06:22;14.38;81.81
69208;SHT31;56321;47.662;8.878;2022-10-16T06:08:48;14.41;81.79
69208;SHT31;56321;47.662;8.878;2022-10-16T06:11:17;14.41;81.84
69208;SHT31;56321;47.662;8.878;2022-10-16T06:13:42;14.45;81.86
69208;SHT31;56321;47.662;8.878;2022-10-16T06:16:10;14.51;81.91
69208;SHT31;56321;47.662;8.878;2022-10-16T06:18:35;14.48;81.97
69208;SHT31;56321;47.662;8.878;2022-10-16T06:21:09;14.52;82.05
69208;SHT31;56321;47.662;8.878;2022-10-16T06:23:35;14.55;82.06
69208;SHT31;56321;47.662;8.878;2022-10-16T06:26:12;14.58;82.13
69208;SHT31;56321;47.662;8.878;2022-10-16T06:28:38;14.65;82.13
69208;SHT31;56321;47.662;8.878;2022-10-16T06:31:05;14.68;82.09
69208;SHT31;56321;47.662;8.878;2022-10-16T06:33:31;14.71;82.04
69208;SHT31;56321;47.662;8.878;2022-10-16T06:36:05;14.71;82.10
69208;SHT31;56321;47.662;8.878;2022-10-16T06:38:31;14.74;82.03
69208;SHT31;56321;47.662;8.878;2022-10-16T06:40:57;14.78;82.09
69208;SHT31;56321;47.662;8.878;2022-10-16T06:43:22;14.78;82.08
69208;SHT31;56321;47.662;8.878;2022-10-16T06:45:52;14.76;82.09
69208;SHT31;56321;47.662;8.878;2022-10-16T06:48:18;14.82;82.13
69208;SHT31;56321;47.662;8.878;2022-10-16T06:50:43;14.88;82.24
69208;SHT31;56321;47.662;8.878;2022-10-16T06:53:08;14.88;82.18
69208;SHT31;56321;47.662;8.878;2022-10-16T06:55:33;14.95;82.15
69208;SHT31;56321;47.662;8.878;2022-10-16T06:57:59;14.99;82.16
69208;SHT31;56321;47.662;8.878;2022-10-16T07:00:24;15.07;82.09
69208;SHT31;56321;47.662;8.878;2022-10-16T07:02:50;15.07;81.91
69208;SHT31;56321;47.662;8.878;2022-10-16T07:05:15;15.14;81.79
69208;SHT31;56321;47.662;8.878;2022-10-16T07:07:41;15.18;81.74
69208;SHT31;56321;47.662;8.878;2022-10-16T07:10:07;15.20;81.66
69208;SHT31;56321;47.662;8.878;2022-10-16T07:12:33;15.27;81.62
69208;SHT31;56321;47.662;8.878;2022-10-16T07:14:58;15.26;81.60
69208;SHT31;56321;47.662;8.878;2022-10-16T07:17:24;15.27;81.58
69208;SHT31;56321;47.662;8.878;2022-10-16T07:19:49;15.29;81.44
69208;SHT31;56321;47.662;8.878;2022-10-16T07:22:17;15.26;81.48
69208;SHT31;56321;47.662;8.878;2022-10-16T07:24:43;15.23;81.66
69208;SHT31;56321;47.662;8.878;2022-10-16T07:27:09;15.24;81.89
69208;SHT31;56321;47.662;8.878;2022-10-16T07:29:34;15.29;82.00
69208;SHT31;56321;47.662;8.878;2022-10-16T07:32:01;15.36;81.90
69208;SHT31;56321;47.662;8.878;2022-10-16T07:34:26;15.41;81.97
69208;SHT31;56321;47.662;8.878;2022-10-16T07:36:52;15.57;82.15
69208;SHT31;56321;47.662;8.878;2022-10-16T07:39:18;15.74;82.14
69208;SHT31;56321;47.662;8.878;2022-10-16T07:41:43;15.91;81.81
69208;SHT31;56321;47.662;8.878;2022-10-16T07:44:09;16.04;81.46
69208;SHT31;56321;47.662;8.878;2022-10-16T07:46:35;16.13;81.28
69208;SHT31;56321;47.662;8.878;2022-10-16T07:49:01;16.33;81.02
69208;SHT31;56321;47.662;8.878;2022-10-16T07:51:27;16.53;81.12
69208;SHT31;56321;47.662;8.878;2022-10-16T07:53:53;16.74;80.54
69208;SHT31;56321;47.662;8.878;2022-10-16T07:56:20;16.96;80.32
69208;SHT31;56321;47.662;8.878;2022-10-16T07:58:45;17.08;79.85
69208;SHT31;56321;47.662;8.878;2022-10-16T08:01:13;17.18;79.44
69208;SHT31;56321;47.662;8.878;2022-10-16T08:03:44;17.21;79.29
69208;SHT31;56321;47.662;8.878;2022-10-16T08:06:10;17.19;78.85
69208;SHT31;56321;47.662;8.878;2022-10-16T08:08:35;17.18;79.00
69208;SHT31;56321;47.662;8.878;2022-10-16T08:11:01;17.19;79.18
69208;SHT31;56321;47.662;8.878;2022-10-16T08:13:29;17.26;79.32
69208;SHT31;56321;47.662;8.878;2022-10-16T08:15:54;17.29;78.89
69208;SHT31;56321;47.662;8.878;2022-10-16T08:18:20;17.23;78.61
69208;SHT31;56321;47.662;8.878;2022-10-16T08:20:45;17.22;78.72
69208;SHT31;56321;47.662;8.878;2022-10-16T08:23:12;17.15;78.63
69208;SHT31;56321;47.662;8.878;2022-10-16T08:25:38;17.14;78.82
69208;SHT31;56321;47.662;8.878;2022-10-16T08:28:08;17.21;79.11
69208;SHT31;56321;47.662;8.878;2022-10-16T08:30:35;17.31;79.07
69208;SHT31;56321;47.662;8.878;2022-10-16T08:33:01;17.42;78.48
69208;SHT31;56321;47.662;8.878;2022-10-16T08:35:26;17.45;78.10
69208;SHT31;56321;47.662;8.878;2022-10-16T08:37:52;17.43;78.08
69208;SHT31;56321;47.662;8.878;2022-10-16T08:40:24;17.39;78.00
69208;SHT31;56321;47.662;8.878;2022-10-16T08:50:36;17.49;78.28
69208;SHT31;56321;47.662;8.878;2022-10-16T08:53:04;17.69;78.50
69208;SHT31;56321;47.662;8.878;2022-10-16T08:55:35;17.86;77.85
69208;SHT31;56321;47.662;8.878;2022-10-16T08:58:11;18.25;77.58
69208;SHT31;56321;47.662;8.878;2022-10-16T09:00:38;18.53;76.78
69208;SHT31;56321;47.662;8.878;2022-10-16T09:03:46;18.67;75.72
69208;SHT31;56321;47.662;8.878;2022-10-16T09:11:58;19.78;73.98
69208;SHT31;56321;47.662;8.878;2022-10-16T09:14:36;19.82;72.96
69208;SHT31;56321;47.662;8.878;2022-10-16T09:20:14;19.28;73.62
69208;SHT31;56321;47.662;8.878;2022-10-16T09:22:42;19.28;74.30
69208;SHT31;56321;47.662;8.878;2022-10-16T09:25:14;19.80;73.98
69208;SHT31;56321;47.662;8.878;2022-10-16T09:27:40;20.72;73.32
69208;SHT31;56321;47.662;8.878;2022-10-16T09:30:13;22.13;70.42
69208;SHT31;56321;47.662;8.878;2022-10-16T09:32:40;23.70;68.46
69208;SHT31;56321;47.662;8.878;2022-10-16T09:35:15;25.37;63.63
69208;SHT31;56321;47.662;8.878;2022-10-16T09:37:43;26.72;60.69
69208;SHT31;56321;47.662;8.878;2022-10-16T09:40:35;27.45;56.32
69208;SHT31;56321;47.662;8.878;2022-10-16T09:43:23;27.57;53.88
69208;SHT31;56321;47.662;8.878;2022-10-16T09:46:27;27.01;52.85
69208;SHT31;56321;47.662;8.878;2022-10-16T09:48:56;27.12;54.99
69208;SHT31;56321;47.662;8.878;2022-10-16T09:51:34;27.73;53.88
69208;SHT31;56321;47.662;8.878;2022-10-16T09:56:36;27.30;52.69
69208;SHT31;56321;47.662;8.878;2022-10-16T09:59:11;26.53;53.16
69208;SHT31;56321;47.662;8.878;2022-10-16T10:01:48;26.40;54.07
69208;SHT31;56321;47.662;8.878;2022-10-16T10:04:16;26.96;54.95
69208;SHT31;56321;47.662;8.878;2022-10-16T10:06:53;27.51;52.89
69208;SHT31;56321;47.662;8.878;2022-10-16T10:09:27;27.68;52.23
69208;SHT31;56321;47.662;8.878;2022-10-16T10:12:02;28.14;51.40
69208;SHT31;56321;47.662;8.878;2022-10-16T10:20:15;30.06;47.14
69208;SHT31;56321;47.662;8.878;2022-10-16T10:22:40;30.85;46.08
69208;SHT31;56321;47.662;8.878;2022-10-16T10:35:27;30.82;43.90
69208;SHT31;56321;47.662;8.878;2022-10-16T10:38:23;31.20;43.92
69208;SHT31;56321;47.662;8.878;2022-10-16T10:41:19;31.17;40.66
69208;SHT31;56321;47.662;8.878;2022-10-16T10:44:09;31.19;41.80
69208;SHT31;56321;47.662;8.878;2022-10-16T10:46:58;31.82;41.64
69208;SHT31;56321;47.662;8.878;2022-10-16T11:00:42;34.33;36.59
69208;SHT31;56321;47.662;8.878;2022-10-16T11:06:08;32.80;37.97
69208;SHT31;56321;47.662;8.878;2022-10-16T11:08:40;33.03;38.91
69208;SHT31;56321;47.662;8.878;2022-10-16T11:11:52;33.56;37.47
69208;SHT31;56321;47.662;8.878;2022-10-16T11:14:28;34.21;36.54
69208;SHT31;56321;47.662;8.878;2022-10-16T11:16:58;34.71;35.96
69208;SHT31;56321;47.662;8.878;2022-10-16T11:22:42;35.06;34.64
69208;SHT31;56321;47.662;8.878;2022-10-16T11:30:22;33.18;35.89
69208;SHT31;56321;47.662;8.878;2022-10-16T11:33:00;32.40;37.63
69208;SHT31;56321;47.662;8.878;2022-10-16T11:38:03;30.21;41.71
69208;SHT31;56321;47.662;8.878;2022-10-16T11:40:37;29.56;42.46
69208;SHT31;56321;47.662;8.878;2022-10-16T11:43:32;29.07;42.97
69208;SHT31;56321;47.662;8.878;2022-10-16T11:46:08;28.72;43.31
69208;SHT31;56321;47.662;8.878;2022-10-16T11:48:39;28.12;44.92
69208;SHT31;56321;47.662;8.878;2022-10-16T11:51:32;27.46;45.39
69208;SHT31;56321;47.662;8.878;2022-10-16T11:54:32;27.47;45.64
69208;SHT31;56321;47.662;8.878;2022-10-16T11:57:08;28.39;46.19
69208;SHT31;56321;47.662;8.878;2022-10-16T12:00:08;29.34;43.53
69208;SHT31;56321;47.662;8.878;2022-10-16T12:05:29;30.78;41.73
69208;SHT31;56321;47.662;8.878;2022-10-16T12:08:14;31.25;41.00
69208;SHT31;56321;47.662;8.878;2022-10-16T12:10:42;31.57;40.19
69208;SHT31;56321;47.662;8.878;2022-10-16T12:18:29;31.10;42.03
69208;SHT31;56321;47.662;8.878;2022-10-16T12:20:57;30.85;40.62
69208;SHT31;56321;47.662;8.878;2022-10-16T12:23:24;30.38;41.10
69208;SHT31;56321;47.662;8.878;2022-10-16T12:25:55;29.92;41.98
69208;SHT31;56321;47.662;8.878;2022-10-16T12:28:25;29.56;42.48
69208;SHT31;56321;47.662;8.878;2022-10-16T12:30:59;29.22;42.79
69208;SHT31;56321;47.662;8.878;2022-10-16T12:33:28;28.91;43.15
69208;SHT31;56321;47.662;8.878;2022-10-16T12:35:54;28.59;44.30
69208;SHT31;56321;47.662;8.878;2022-10-16T12:38:28;28.35;44.14
69208;SHT31;56321;47.662;8.878;2022-10-16T12:41:05;27.98;44.77
69208;SHT31;56321;47.662;8.878;2022-10-16T12:43:46;27.64;45.56
69208;SHT31;56321;47.662;8.878;2022-10-16T12:48:39;27.10;46.31
69208;SHT31;56321;47.662;8.878;2022-10-16T12:54:12;26.54;48.09
69208;SHT31;56321;47.662;8.878;2022-10-16T13:11:03;25.17;51.03
69208;SHT31;56321;47.662;8.878;2022-10-16T13:21:28;24.51;53.26
69208;SHT31;56321;47.662;8.878;2022-10-16T13:24:03;24.44;52.79
69208;SHT31;56321;47.662;8.878;2022-10-16T13:26:55;24.32;53.70
69208;SHT31;56321;47.662;8.878;2022-10-16T13:29:22;24.32;53.93
69208;SHT31;56321;47.662;8.878;2022-10-16T13:31:47;24.22;54.33
69208;SHT31;56321;47.662;8.878;2022-10-16T13:34:21;24.17;54.54
69208;SHT31;56321;47.662;8.878;2022-10-16T13:36:49;24.13;55.05
69208;SHT31;56321;47.662;8.878;2022-10-16T13:39:27;24.10;55.64
69208;SHT31;56321;47.662;8.878;2022-10-16T13:42:20;24.03;57.18
69208;SHT31;56321;47.662;8.878;2022-10-16T13:44:53;24.04;57.28
69208;SHT31;56321;47.662;8.878;2022-10-16T13:47:22;24.00;55.51
69208;SHT31;56321;47.662;8.878;2022-10-16T13:50:02;23.90;54.78
69208;SHT31;56321;47.662;8.878;2022-10-16T13:52:28;23.79;55.23
69208;SHT31;56321;47.662;8.878;2022-10-16T13:54:54;23.66;55.19
69208;SHT31;56321;47.662;8.878;2022-10-16T13:57:22;23.59;55.52
69208;SHT31;56321;47.662;8.878;2022-10-16T13:59:48;23.56;56.30
69208;SHT31;56321;47.662;8.878;2022-10-16T14:02:34;23.55;55.55
69208;SHT31;56321;47.662;8.878;2022-10-16T14:05:02;23.56;55.69
69208;SHT31;56321;47.662;8.878;2022-10-16T14:07:31;23.53;55.21
69208;SHT31;56321;47.662;8.878;2022-10-16T14:10:02;23.49;56.59
69208;SHT31;56321;47.662;8.878;2022-10-16T14:12:28;23.46;56.59
69208;SHT31;56321;47.662;8.878;2022-10-16T14:14:55;23.49;56.58
69208;SHT31;56321;47.662;8.878;2022-10-16T14:17:26;23.49;57.11
69208;SHT31;56321;47.662;8.878;2022-10-16T14:19:54;23.49;57.88
69208;SHT31;56321;47.662;8.878;2022-10-16T14:22:26;23.46;57.06
69208;SHT31;56321;47.662;8.878;2022-10-16T14:24:52;23.43;56.66
69208;SHT31;56321;47.662;8.878;2022-10-16T14:32:34;23.25;55.93
69208;SHT31;56321;47.662;8.878;2022-10-16T14:34:59;23.21;56.13
69208;SHT31;56321;47.662;8.878;2022-10-16T14:37:27;23.16;56.85
69208;SHT31;56321;47.662;8.878;2022-10-16T14:39:53;23.14;56.85
69208;SHT31;56321;47.662;8.878;2022-10-16T14:42:21;23.12;56.99
69208;SHT31;56321;47.662;8.878;2022-10-16T14:44:53;23.07;56.88
69208;SHT31;56321;47.662;8.878;2022-10-16T14:47:21;23.02;56.98
69208;SHT31;56321;47.662;8.878;2022-10-16T14:49:50;22.97;56.58
69208;SHT31;56321;47.662;8.878;2022-10-16T14:52:16;22.91;56.57
69208;SHT31;56321;47.662;8.878;2022-10-16T14:54:41;22.86;57.31
69208;SHT31;56321;47.662;8.878;2022-10-16T14:57:17;22.77;57.38
69208;SHT31;56321;47.662;8.878;2022-10-16T14:59:43;22.75;58.15
69208;SHT31;56321;47.662;8.878;2022-10-16T15:02:35;22.67;57.56
69208;SHT31;56321;47.662;8.878;2022-10-16T15:05:19;22.64;58.43
69208;SHT31;56321;47.662;8.878;2022-10-16T15:07:45;22.64;59.74
69208;SHT31;56321;47.662;8.878;2022-10-16T15:10:12;22.60;60.01
69208;SHT31;56321;47.662;8.878;2022-10-16T15:12:38;22.59;60.17
69208;SHT31;56321;47.662;8.878;2022-10-16T15:17:51;22.52;61.05
69208;SHT31;56321;47.662;8.878;2022-10-16T15:20:27;22.49;61.46
69208;SHT31;56321;47.662;8.878;2022-10-16T15:22:53;22.47;61.66
69208;SHT31;56321;47.662;8.878;2022-10-16T15:25:34;22.42;61.79
69208;SHT31;56321;47.662;8.878;2022-10-16T15:28:01;22.43;62.62
69208;SHT31;56321;47.662;8.878;2022-10-16T15:30:27;22.39;62.82
69208;SHT31;56321;47.662;8.878;2022-10-16T15:32:52;22.37;62.98
69208;SHT31;56321;47.662;8.878;2022-10-16T15:35:18;22.35;63.03
69208;SHT31;56321;47.662;8.878;2022-10-16T15:37:43;22.28;62.49
69208;SHT31;56321;47.662;8.878;2022-10-16T15:40:10;22.20;62.51
69208;SHT31;56321;47.662;8.878;2022-10-16T15:42:36;22.13;62.62
69208;SHT31;56321;47.662;8.878;2022-10-16T15:45:01;22.05;62.18
69208;SHT31;56321;47.662;8.878;2022-10-16T15:47:26;21.97;62.74
69208;SHT31;56321;47.662;8.878;2022-10-16T15:49:52;21.91;63.04
69208;SHT31;56321;47.662;8.878;2022-10-16T15:52:17;21.85;63.64
69208;SHT31;56321;47.662;8.878;2022-10-16T15:54:43;21.74;64.17
69208;SHT31;56321;47.662;8.878;2022-10-16T15:57:08;21.67;64.56
69208;SHT31;56321;47.662;8.878;2022-10-16T15:59:34;21.58;65.14
69208;SHT31;56321;47.662;8.878;2022-10-16T16:01:59;21.50;65.73
69208;SHT31;56321;47.662;8.878;2022-10-16T16:04:24;21.41;66.00
69208;SHT31;56321;47.662;8.878;2022-10-16T16:06:50;21.29;66.45
69208;SHT31;56321;47.662;8.878;2022-10-16T16:09:15;21.24;66.78
69208;SHT31;56321;47.662;8.878;2022-10-16T16:11:41;21.13;67.14
69208;SHT31;56321;47.662;8.878;2022-10-16T16:14:07;21.03;67.44
69208;SHT31;56321;47.662;8.878;2022-10-16T16:16:32;20.96;67.72
69208;SHT31;56321;47.662;8.878;2022-10-16T16:19:04;20.88;67.91
69208;SHT31;56321;47.662;8.878;2022-10-16T16:21:30;20.76;68.04
69208;SHT31;56321;47.662;8.878;2022-10-16T16:23:55;20.69;68.08
69208;SHT31;56321;47.662;8.878;2022-10-16T16:26:24;20.59;68.21
69208;SHT31;56321;47.662;8.878;2022-10-16T16:28:53;20.49;68.23
69208;SHT31;56321;47.662;8.878;2022-10-16T16:31:19;20.37;68.47
69208;SHT31;56321;47.662;8.878;2022-10-16T16:33:44;20.30;68.39
69208;SHT31;56321;47.662;8.878;2022-10-16T16:36:10;20.23;68.37
69208;SHT31;56321;47.662;8.878;2022-10-16T16:38:36;20.12;68.29
69208;SHT31;56321;47.662;8.878;2022-10-16T16:41:15;20.00;68.35
69208;SHT31;56321;47.662;8.878;2022-10-16T16:43:41;19.92;68.30
69208;SHT31;56321;47.662;8.878;2022-10-16T16:46:06;19.85;68.32
69208;SHT31;56321;47.662;8.878;2022-10-16T16:48:32;19.75;68.40
69208;SHT31;56321;47.662;8.878;2022-10-16T16:51:08;19.65;68.76
69208;SHT31;56321;47.662;8.878;2022-10-16T16:53:34;19.57;68.64
69208;SHT31;56321;47.662;8.878;2022-10-16T16:56:04;19.51;68.84
69208;SHT31;56321;47.662;8.878;2022-10-16T16:58:30;19.41;68.92
69208;SHT31;56321;47.662;8.878;2022-10-16T17:00:56;19.31;69.13
69208;SHT31;56321;47.662;8.878;2022-10-16T17:03:28;19.22;69.21
69208;SHT31;56321;47.662;8.878;2022-10-16T17:06:02;19.13;69.37
69208;SHT31;56321;47.662;8.878;2022-10-16T17:08:28;19.06;69.42
69208;SHT31;56321;47.662;8.878;2022-10-16T17:10:55;18.99;69.39
69208;SHT31;56321;47.662;8.878;2022-10-16T17:13:22;18.92;69.42
69208;SHT31;56321;47.662;8.878;2022-10-16T17:15:49;18.83;69.50
69208;SHT31;56321;47.662;8.878;2022-10-16T17:18:15;18.77;69.66
69208;SHT31;56321;47.662;8.878;2022-10-16T17:20:40;18.69;69.81
69208;SHT31;56321;47.662;8.878;2022-10-16T17:23:06;18.59;69.84
69208;SHT31;56321;47.662;8.878;2022-10-16T17:25:35;18.53;69.92
69208;SHT31;56321;47.662;8.878;2022-10-16T17:28:01;18.45;70.07
69208;SHT31;56321;47.662;8.878;2022-10-16T17:30:26;18.36;70.20
69208;SHT31;56321;47.662;8.878;2022-10-16T17:32:51;18.34;70.40
69208;SHT31;56321;47.662;8.878;2022-10-16T17:35:17;18.28;70.39